Time;durP1;ratioP1;P1;durP2;ratioP2;P2;SDS_P1;SDS_P2;PMS_P1;PMS_P2;Temp;Humidity;BMP_temperature;BMP_pressure;BME280_temperature;BME280_humidity;BME280_pressure;Samples;Min_cycle;Max_cycle;Signal;HPM_P1;HPM_P2
2022/03/19 00:01:02;;;;;;;;;;;;;;;8.90;100.00;101796.09;5073895;28;20023;-78
2022/03/19 00:03:30;;;;;;;;;;;;;;;9.02;100.00;101794.13;5056319;28;20062;-78
2022/03/19 00:05:57;;;;;;;;;;;;;;;9.09;100.00;101793.53;5073810;28;20367;-78
2022/03/19 00:08:25;;;;;;;;;;;;;;;9.11;100.00;101794.00;5072433;28;19925;-78
2022/03/19 00:10:52;;;;;;;;;;;;;;;8.97;100.00;101801.91;5072575;28;20323;-78
2022/03/19 00:13:19;;;;;;;;;;;;;;;8.99;100.00;101799.59;5072551;28;19963;-78
2022/03/19 00:15:46;;;;;;;;;;;;;;;8.87;100.00;101794.81;5073645;28;19925;-78
2022/03/19 00:18:14;;;;;;;;;;;;;;;9.02;100.00;101805.31;5073950;28;19924;-78
2022/03/19 00:20:41;;;;;;;;;;;;;;;8.76;100.00;101790.84;5073744;28;19949;-78
2022/03/19 00:23:09;;;;;;;;;;;;;;;8.83;100.00;101788.28;5073098;28;20360;-78
2022/03/19 00:25:37;;;;;;;;;;;;;;;8.75;100.00;101796.78;5072492;28;20281;-78
2022/03/19 00:28:04;;;;;;;;;;;;;;;8.76;100.00;101795.59;5055944;28;19924;-78
2022/03/19 00:30:32;;;;;;;;;;;;;;;8.69;100.00;101792.59;5073444;28;19931;-78
2022/03/19 00:33:00;;;;;;;;;;;;;;;8.65;100.00;101794.41;5073563;28;19932;-78
2022/03/19 00:35:27;;;;;;;;;;;;;;;8.66;100.00;101796.06;5073472;28;19924;-78
2022/03/19 00:37:55;;;;;;;;;;;;;;;8.59;100.00;101790.22;5073052;28;19960;-78
2022/03/19 00:40:23;;;;;;;;;;;;;;;8.64;100.00;101787.22;5073331;28;19925;-78
2022/03/19 00:42:50;;;;;;;;;;;;;;;8.67;100.00;101786.53;5073643;28;19977;-78
2022/03/19 00:45:18;;;;;;;;;;;;;;;8.59;100.00;101788.25;5073319;28;20418;-78
2022/03/19 00:47:45;;;;;;;;;;;;;;;8.49;100.00;101787.88;5073506;28;19925;-78
2022/03/19 00:50:13;;;;;;;;;;;;;;;8.70;100.00;101783.06;5072057;28;19955;-78
2022/03/19 00:52:40;;;;;;;;;;;;;;;8.59;100.00;101779.06;5073226;28;19970;-79
2022/03/19 00:55:07;;;;;;;;;;;;;;;8.45;100.00;101781.38;5072066;28;19931;-78
2022/03/19 00:57:41;;;;;;;;;;;;;;;8.47;100.00;101777.09;5073422;28;19925;-78
2022/03/19 01:00:11;;;;;;;;;;;;;;;8.34;100.00;101783.78;5073225;28;19924;-78
2022/03/19 01:02:39;;;;;;;;;;;;;;;8.46;100.00;101775.47;5073276;28;19951;-78
2022/03/19 01:05:07;;;;;;;;;;;;;;;8.58;100.00;101775.50;5071779;28;20020;-78
2022/03/19 01:07:44;;;;;;;;;;;;;;;8.44;100.00;101769.41;5070598;28;20270;-78
2022/03/19 01:10:12;;;;;;;;;;;;;;;8.29;100.00;101767.28;5075109;28;19928;-78
2022/03/19 01:12:40;;;;;;;;;;;;;;;8.56;100.00;101763.03;5075752;28;19925;-78
2022/03/19 01:15:08;;;;;;;;;;;;;;;8.73;100.00;101762.84;5076931;28;20279;-78
2022/03/19 01:17:39;;;;;;;;;;;;;;;8.60;100.00;101764.00;5075525;28;19925;-78
2022/03/19 01:20:10;;;;;;;;;;;;;;;8.04;100.00;101764.72;5075291;28;20332;-78
2022/03/19 01:22:38;;;;;;;;;;;;;;;8.19;100.00;101759.34;5058402;28;19925;-78
2022/03/19 01:25:06;;;;;;;;;;;;;;;8.26;100.00;101761.56;5076724;28;20329;-79
2022/03/19 01:27:34;;;;;;;;;;;;;;;8.30;100.00;101757.75;5076648;28;20396;-79
2022/03/19 01:30:02;;;;;;;;;;;;;;;8.35;100.00;101751.16;5079473;28;19978;-78
2022/03/19 01:32:30;;;;;;;;;;;;;;;8.45;100.00;101745.94;5096923;28;20023;-78
2022/03/19 01:34:57;;;;;;;;;;;;;;;8.44;100.00;101743.50;5096385;28;19951;-78
2022/03/19 01:37:24;;;;;;;;;;;;;;;8.31;100.00;101733.50;5096290;28;19928;-78
2022/03/19 01:39:55;;;;;;;;;;;;;;;8.33;100.00;101740.34;5096779;28;20378;-79
2022/03/19 01:42:24;;;;;;;;;;;;;;;7.97;100.00;101745.78;5096651;28;19986;-78
2022/03/19 01:44:52;;;;;;;;;;;;;;;7.94;100.00;101737.28;5095362;28;20019;-78
2022/03/19 01:47:19;;;;;;;;;;;;;;;7.98;100.00;101730.69;5095105;28;20023;-78
2022/03/19 01:49:48;;;;;;;;;;;;;;;7.64;100.00;101728.22;5078596;28;19924;-78
2022/03/19 01:52:15;;;;;;;;;;;;;;;7.57;100.00;101730.75;5096514;28;20008;-78
2022/03/19 01:54:44;;;;;;;;;;;;;;;7.61;100.00;101728.09;5095198;28;19936;-78
2022/03/19 01:57:14;;;;;;;;;;;;;;;7.52;100.00;101724.56;5096247;28;19931;-78
2022/03/19 01:59:42;;;;;;;;;;;;;;;7.50;100.00;101722.13;5096191;28;19924;-78
2022/03/19 02:02:13;;;;;;;;;;;;;;;7.37;100.00;101726.00;5096423;28;19937;-78
2022/03/19 02:04:42;;;;;;;;;;;;;;;7.21;100.00;101722.16;5094551;28;19978;-78
2022/03/19 02:07:09;;;;;;;;;;;;;;;7.29;100.00;101724.91;5096105;28;19924;-78
2022/03/19 02:09:38;;;;;;;;;;;;;;;7.27;100.00;101718.03;5095972;28;20375;-78
2022/03/19 02:12:06;;;;;;;;;;;;;;;7.25;100.00;101720.34;5094842;28;20275;-78
2022/03/19 02:14:34;;;;;;;;;;;;;;;7.30;100.00;101717.34;5094673;28;19924;-78
2022/03/19 02:17:02;;;;;;;;;;;;;;;7.30;100.00;101709.84;5094928;28;20306;-78
2022/03/19 02:19:29;;;;;;;;;;;;;;;7.35;100.00;101701.31;5095724;28;19924;-79
2022/03/19 02:21:57;;;;;;;;;;;;;;;7.36;100.00;101696.56;5094438;28;20394;-78
2022/03/19 02:27:10;;;;;;;;;;;;;;;7.69;100.00;101691.84;5094517;28;19931;-78
2022/03/19 02:29:37;;;;;;;;;;;;;;;7.83;100.00;101681.22;5094468;28;19924;-78
2022/03/19 02:32:05;;;;;;;;;;;;;;;7.72;100.00;101688.38;5074153;28;20291;-78
2022/03/19 02:34:33;;;;;;;;;;;;;;;7.73;100.00;101678.88;5073909;28;20371;-78
2022/03/19 02:37:00;;;;;;;;;;;;;;;7.54;100.00;101677.75;5075421;28;19936;-78
2022/03/19 02:39:31;;;;;;;;;;;;;;;7.80;100.00;101673.56;5075214;28;20019;-78
2022/03/19 02:42:05;;;;;;;;;;;;;;;7.79;100.00;101671.94;5075421;28;20015;-78
2022/03/19 02:44:33;;;;;;;;;;;;;;;7.97;100.00;101662.25;5057418;28;19928;-79
2022/03/19 02:47:01;;;;;;;;;;;;;;;7.92;100.00;101659.66;5075102;28;19931;-79
2022/03/19 02:49:28;;;;;;;;;;;;;;;7.91;100.00;101657.22;5056733;28;20359;-78
2022/03/19 02:51:55;;;;;;;;;;;;;;;8.07;100.00;101653.47;5075149;28;19931;-78
2022/03/19 02:54:27;;;;;;;;;;;;;;;8.16;100.00;101645.81;5074943;28;19974;-78
2022/03/19 02:56:55;;;;;;;;;;;;;;;8.02;100.00;101639.75;5073743;28;20006;-78
2022/03/19 02:59:30;;;;;;;;;;;;;;;7.71;100.00;101642.22;5040252;28;19936;-78
2022/03/19 03:01:59;;;;;;;;;;;;;;;7.75;100.00;101645.94;5073492;28;20304;-78
2022/03/19 03:04:28;;;;;;;;;;;;;;;7.94;100.00;101635.09;5074601;28;20660;-78
2022/03/19 03:06:56;;;;;;;;;;;;;;;7.99;100.00;101632.09;5073335;28;19960;-78
2022/03/19 03:09:24;;;;;;;;;;;;;;;7.96;100.00;101623.59;5074610;28;19959;-78
2022/03/19 03:11:52;;;;;;;;;;;;;;;7.98;100.00;101630.44;5073479;28;19931;-78
2022/03/19 03:14:20;;;;;;;;;;;;;;;7.96;100.00;101620.81;5074234;28;19929;-78
2022/03/19 03:16:49;;;;;;;;;;;;;;;7.88;100.00;101622.53;5072911;28;19947;-78
2022/03/19 03:19:19;;;;;;;;;;;;;;;7.96;100.00;101616.06;5073054;28;20162;-78
2022/03/19 03:21:47;;;;;;;;;;;;;;;7.85;100.00;101614.88;5073340;28;19924;-79
2022/03/19 03:24:15;;;;;;;;;;;;;;;7.66;100.00;101617.41;5056388;28;19947;-78
2022/03/19 03:26:42;;;;;;;;;;;;;;;7.81;100.00;101613.97;5072964;28;19928;-78
2022/03/19 03:29:10;;;;;;;;;;;;;;;7.96;100.00;101610.50;5073176;28;19932;-78
2022/03/19 03:31:37;;;;;;;;;;;;;;;7.85;100.00;101609.31;5090553;28;19924;-78
2022/03/19 03:34:04;;;;;;;;;;;;;;;8.11;100.00;101598.69;5094181;28;19925;-79
2022/03/19 03:36:32;;;;;;;;;;;;;;;7.91;100.00;101596.81;5094554;28;19939;-78
2022/03/19 03:38:59;;;;;;;;;;;;;;;7.81;100.00;101594.47;5093235;28;19924;-78
2022/03/19 03:41:26;;;;;;;;;;;;;;;7.83;100.00;101600.50;5081461;28;19940;-78
2022/03/19 03:43:53;;;;;;;;;;;;;;;7.62;100.00;101594.16;5058015;28;19964;-78
2022/03/19 03:46:20;;;;;;;;;;;;;;;7.66;100.00;101589.56;5052614;28;19932;-78
2022/03/19 03:48:47;;;;;;;;;;;;;;;7.61;100.00;101584.22;5054033;28;19928;-78
2022/03/19 03:51:15;;;;;;;;;;;;;;;7.62;100.00;101588.59;5054013;28;19939;-78
2022/03/19 03:53:44;;;;;;;;;;;;;;;7.71;100.00;101591.31;5052781;28;19924;-78
2022/03/19 03:56:11;;;;;;;;;;;;;;;7.69;100.00;101588.06;5053955;28;19925;-78
2022/03/19 03:58:41;;;;;;;;;;;;;;;7.69;100.00;101588.06;5053853;28;20296;-78
2022/03/19 04:01:09;;;;;;;;;;;;;;;7.76;100.00;101583.53;5052399;28;19939;-78
2022/03/19 04:03:36;;;;;;;;;;;;;;;7.73;100.00;101584.25;5053852;28;19925;-78
2022/03/19 04:06:04;;;;;;;;;;;;;;;7.74;100.00;101585.84;5052647;28;19928;-78
2022/03/19 04:08:31;;;;;;;;;;;;;;;7.81;100.00;101579.72;5052498;28;19947;-78
2022/03/19 04:10:58;;;;;;;;;;;;;;;7.81;100.00;101588.09;5053942;28;19925;-78
2022/03/19 04:15:14;;;;;;;;;;;;;;;7.89;100.00;101570.47;5090893;28;20379;-79
2022/03/19 04:17:42;;;;;;;;;;;;;;;7.81;100.00;101574.97;5091097;28;19925;-80
2022/03/19 04:20:09;;;;;;;;;;;;;;;7.82;100.00;101571.03;5089969;28;19924;-80
2022/03/19 04:22:37;;;;;;;;;;;;;;;7.78;100.00;101570.13;5091175;28;19955;-80
2022/03/19 04:25:08;;;;;;;;;;;;;;;7.71;100.00;101580.97;5089883;28;19925;-80
2022/03/19 04:27:35;;;;;;;;;;;;;;;7.70;100.00;101575.75;5091118;28;19925;-79
2022/03/19 04:30:02;;;;;;;;;;;;;;;7.45;100.00;101571.28;5095396;28;19930;-80
2022/03/19 04:32:30;;;;;;;;;;;;;;;7.33;100.00;101563.69;5109690;28;19928;-80
2022/03/19 04:34:57;;;;;;;;;;;;;;;7.08;100.00;101573.09;5110104;28;20367;-79
2022/03/19 04:37:25;;;;;;;;;;;;;;;7.07;100.00;101565.91;5110247;28;20010;-79
2022/03/19 04:39:52;;;;;;;;;;;;;;;6.89;100.00;101575.56;5093195;28;20026;-79
2022/03/19 04:42:19;;;;;;;;;;;;;;;6.74;100.00;101578.94;5111034;28;19931;-79
2022/03/19 04:44:46;;;;;;;;;;;;;;;6.83;100.00;101574.13;5109664;28;19924;-79
2022/03/19 04:47:14;;;;;;;;;;;;;;;6.79;100.00;101587.06;5111183;28;19928;-79
2022/03/19 04:49:41;;;;;;;;;;;;;;;6.75;100.00;101577.78;5111012;28;19924;-79
2022/03/19 04:52:08;;;;;;;;;;;;;;;6.67;100.00;101571.13;5109680;28;19989;-79
2022/03/19 04:54:35;;;;;;;;;;;;;;;6.59;100.00;101582.28;5110880;28;19924;-79
2022/03/19 04:57:02;;;;;;;;;;;;;;;6.66;100.00;101577.03;5109471;28;19947;-79
2022/03/19 04:59:30;;;;;;;;;;;;;;;6.72;100.00;101582.06;5110554;28;19924;-79
2022/03/19 05:01:57;;;;;;;;;;;;;;;6.61;100.00;101580.00;5110694;28;20365;-79
2022/03/19 05:04:24;;;;;;;;;;;;;;;6.56;100.00;101585.75;5109508;28;19928;-79
2022/03/19 05:06:51;;;;;;;;;;;;;;;6.47;100.00;101585.81;5109546;28;19924;-79
2022/03/19 05:12:05;;;;;;;;;;;;;;;6.36;100.00;101589.31;5109246;28;19924;-79
2022/03/19 05:14:32;;;;;;;;;;;;;;;6.36;100.00;101589.31;5092305;28;19924;-80
2022/03/19 05:16:59;;;;;;;;;;;;;;;6.45;100.00;101595.63;5126017;28;19974;-79
2022/03/19 05:19:27;;;;;;;;;;;;;;;6.49;100.00;101582.69;5089361;28;19956;-79
2022/03/19 05:21:55;;;;;;;;;;;;;;;6.46;100.00;101583.34;5090926;28;19996;-79
2022/03/19 05:24:22;;;;;;;;;;;;;;;6.46;100.00;101586.97;5071936;28;20009;-79
2022/03/19 05:26:49;;;;;;;;;;;;;;;6.51;100.00;101586.75;5096211;28;19950;-79
2022/03/19 05:29:16;;;;;;;;;;;;;;;6.38;100.00;101592.53;5095424;28;19924;-79
2022/03/19 05:31:46;;;;;;;;;;;;;;;6.49;100.00;101593.81;5063730;28;19924;-79
2022/03/19 05:34:29;;;;;;;;;;;;;;;6.62;100.00;101581.66;5055008;28;19928;-79
2022/03/19 05:37:00;;;;;;;;;;;;;;;6.44;100.00;101580.09;5066129;28;19931;-80
2022/03/19 05:39:28;;;;;;;;;;;;;;;6.45;100.00;101573.41;5096923;28;19928;-80
2022/03/19 05:41:55;;;;;;;;;;;;;;;6.59;100.00;101573.94;5095096;28;19924;-79
2022/03/19 05:44:22;;;;;;;;;;;;;;;6.55;100.00;101575.78;5096214;28;19993;-79
2022/03/19 05:46:49;;;;;;;;;;;;;;;6.45;100.00;101582.53;5095295;28;19924;-79
2022/03/19 05:49:16;;;;;;;;;;;;;;;6.41;100.00;101580.75;5105893;28;19928;-79
2022/03/19 05:51:47;;;;;;;;;;;;;;;6.76;100.00;101577.44;5075961;28;19947;-79
2022/03/19 05:54:14;;;;;;;;;;;;;;;6.75;100.00;101577.78;5076021;28;20045;-79
2022/03/19 05:56:42;;;;;;;;;;;;;;;6.59;100.00;101576.72;5074598;28;20367;-79
2022/03/19 05:59:09;;;;;;;;;;;;;;;6.37;100.00;101577.88;5074840;28;20019;-79
2022/03/19 06:01:36;;;;;;;;;;;;;;;6.49;100.00;101571.56;5074632;28;19951;-79
2022/03/19 06:04:03;;;;;;;;;;;;;;;6.47;100.00;101573.88;5108441;28;20388;-80
2022/03/19 06:06:31;;;;;;;;;;;;;;;6.63;100.00;101574.94;5074772;28;19925;-79
2022/03/19 06:08:58;;;;;;;;;;;;;;;6.86;100.00;101577.03;5058098;28;20372;-79
2022/03/19 06:11:25;;;;;;;;;;;;;;;6.84;100.00;101579.34;5073812;28;20307;-79
2022/03/19 06:13:52;;;;;;;;;;;;;;;6.67;100.00;101584.22;5074033;28;20348;-80
2022/03/19 06:16:20;;;;;;;;;;;;;;;6.52;100.00;101590.34;5075778;28;20020;-79
2022/03/19 06:18:50;;;;;;;;;;;;;;;6.43;100.00;101584.03;5074517;28;20341;-79
2022/03/19 06:21:20;;;;;;;;;;;;;;;6.26;100.00;101595.22;5074685;28;20336;-79
2022/03/19 06:23:47;;;;;;;;;;;;;;;6.45;100.00;101590.88;5074318;28;19932;-79
2022/03/19 06:26:15;;;;;;;;;;;;;;;6.42;100.00;101593.53;5084128;28;20383;-80
2022/03/19 06:28:42;;;;;;;;;;;;;;;6.15;100.00;101583.69;5094465;28;19924;-79
2022/03/19 06:31:09;;;;;;;;;;;;;;;6.22;100.00;101584.00;5094533;28;20007;-79
2022/03/19 06:33:41;;;;;;;;;;;;;;;6.11;100.00;101593.84;5094453;28;19946;-79
2022/03/19 06:38:54;;;;;;;;;;;;;;;6.10;100.00;101585.84;5094029;28;19938;-79
2022/03/19 06:41:22;;;;;;;;;;;;;;;6.22;100.00;101599.81;5077209;28;20344;-80
2022/03/19 06:43:49;;;;;;;;;;;;;;;6.41;100.00;101591.88;5091903;28;19924;-79
2022/03/19 06:46:16;;;;;;;;;;;;;;;6.35;100.00;101588.50;5055204;28;20015;-79
2022/03/19 06:48:46;;;;;;;;;;;;;;;6.41;100.00;101592.69;5071547;28;19931;-80
2022/03/19 06:51:14;;;;;;;;;;;;;;;6.24;100.00;101592.78;5073730;28;20018;-80
2022/03/19 06:53:44;;;;;;;;;;;;;;;6.17;100.00;101594.44;5074870;28;20391;-80
2022/03/19 06:56:12;;;;;;;;;;;;;;;6.05;100.00;101594.34;5057100;28;19947;-80
2022/03/19 06:58:41;;;;;;;;;;;;;;;6.03;100.00;101596.66;5056965;28;19925;-79
2022/03/19 07:01:17;;;;;;;;;;;;;;;6.05;100.00;101592.41;5057652;28;20027;-79
2022/03/19 07:03:47;;;;;;;;;;;;;;;6.06;100.00;101587.66;5074784;28;19951;-79
2022/03/19 07:06:16;;;;;;;;;;;;;;;6.37;100.00;101590.94;5076032;28;19924;-78
2022/03/19 07:09:04;;;;;;;;;;;;;;;6.94;100.00;101594.78;5036529;28;19966;-79
2022/03/19 07:11:31;;;;;;;;;;;;;;;7.58;100.00;101593.25;5077046;28;20014;-78
2022/03/19 07:14:01;;;;;;;;;;;;;;;8.05;100.00;101579.75;5092794;28;19924;-80
2022/03/19 07:16:28;;;;;;;;;;;;;;;8.25;100.00;101576.94;5094886;28;20032;-79
2022/03/19 07:18:56;;;;;;;;;;;;;;;8.41;100.00;101577.84;5060420;28;20023;-79
2022/03/19 07:21:23;;;;;;;;;;;;;;;8.79;100.00;101572.69;5094443;28;19924;-80
2022/03/19 07:23:51;;;;;;;;;;;;;;;8.60;100.00;101580.03;5093120;28;19924;-80
2022/03/19 07:26:18;;;;;;;;;;;;;;;8.70;100.00;101572.00;5093148;28;19928;-79
2022/03/19 07:28:45;;;;;;;;;;;;;;;8.84;100.00;101566.88;5094582;28;19952;-80
2022/03/19 07:31:12;;;;;;;;;;;;;;;9.30;100.00;101565.41;5094551;28;19924;-79
2022/03/19 07:33:40;;;;;;;;;;;;;;;9.53;100.00;101560.91;5094564;28;19924;-81
2022/03/19 07:36:07;;;;;;;;;;;;;;;9.85;100.00;101564.56;5093315;28;20404;-80
2022/03/19 07:38:34;;;;;;;;;;;;;;;9.79;100.00;101549.22;5094157;28;19928;-80
2022/03/19 07:43:47;;;;;;;;;;;;;;;10.63;100.00;101552.19;5089543;28;19924;-79
2022/03/19 07:46:14;;;;;;;;;;;;;;;10.76;100.00;101550.91;5073856;28;19936;-79
2022/03/19 07:48:42;;;;;;;;;;;;;;;11.02;100.00;101546.63;5073616;28;19925;-79
2022/03/19 07:51:09;;;;;;;;;;;;;;;11.21;100.00;101546.66;5073724;28;20403;-79
2022/03/19 07:53:37;;;;;;;;;;;;;;;11.24;100.00;101543.91;5072455;28;19970;-79
2022/03/19 07:56:06;;;;;;;;;;;;;;;11.43;100.00;101541.13;5073459;28;19933;-79
2022/03/19 07:58:33;;;;;;;;;;;;;;;11.44;100.00;101528.72;5073682;28;19925;-79
2022/03/19 08:01:00;;;;;;;;;;;;;;;11.49;100.00;101536.84;5072292;28;20015;-79
2022/03/19 08:03:27;;;;;;;;;;;;;;;11.88;100.00;101532.78;5073811;28;19925;-79
2022/03/19 08:05:55;;;;;;;;;;;;;;;12.02;100.00;101544.25;5073435;28;20328;-79
2022/03/19 08:08:22;;;;;;;;;;;;;;;12.24;100.00;101537.00;5072057;28;19931;-80
2022/03/19 08:10:49;;;;;;;;;;;;;;;12.39;100.00;101528.44;5073547;28;19924;-79
2022/03/19 08:13:19;;;;;;;;;;;;;;;12.31;100.00;101525.91;5064487;28;19930;-80
2022/03/19 08:15:46;;;;;;;;;;;;;;;12.36;100.00;101523.59;5055248;28;19925;-79
2022/03/19 08:18:14;;;;;;;;;;;;;;;12.60;100.00;101523.16;5114817;28;19925;-79
2022/03/19 08:20:41;;;;;;;;;;;;;;;12.56;100.00;101515.88;5093705;28;19924;-79
2022/03/19 08:23:09;;;;;;;;;;;;;;;12.68;100.00;101519.28;5093546;28;19924;-79
2022/03/19 08:25:37;;;;;;;;;;;;;;;12.70;100.00;101511.28;5093668;28;19924;-79
2022/03/19 08:28:04;;;;;;;;;;;;;;;12.67;100.00;101514.84;5093431;28;20041;-79
2022/03/19 08:30:32;;;;;;;;;;;;;;;12.37;100.00;101524.41;5093673;28;19947;-79
2022/03/19 08:32:59;;;;;;;;;;;;;;;12.44;100.00;101519.72;5074766;28;20005;-79
2022/03/19 08:35:28;;;;;;;;;;;;;;;13.21;100.00;101513.59;5064416;28;19925;-79
2022/03/19 08:40:46;;;;;;;;;;;;;;;13.72;100.00;101511.75;5060711;28;19924;-79
2022/03/19 08:43:13;;;;;;;;;;;;;;;14.20;100.00;101510.56;5092047;28;19931;-79
2022/03/19 08:45:40;;;;;;;;;;;;;;;13.51;100.00;101506.69;5093182;28;19960;-79
2022/03/19 08:48:09;;;;;;;;;;;;;;;12.65;100.00;101508.81;5093205;28;19931;-78
2022/03/19 08:50:39;;;;;;;;;;;;;;;11.92;100.00;101511.25;5092930;28;20011;-78
2022/03/19 08:53:07;;;;;;;;;;;;;;;13.09;100.00;101508.19;5093072;28;19924;-78
2022/03/19 08:55:34;;;;;;;;;;;;;;;12.85;100.00;101512.28;5092806;28;19928;-78
2022/03/19 08:58:03;;;;;;;;;;;;;;;13.00;100.00;101518.91;5091705;28;19976;-77
2022/03/19 09:00:30;;;;;;;;;;;;;;;12.61;100.00;101513.56;5094192;28;19928;-77
2022/03/19 09:02:57;;;;;;;;;;;;;;;12.44;100.00;101514.09;5095530;28;19924;-79
2022/03/19 09:05:27;;;;;;;;;;;;;;;13.34;100.00;101503.69;5088995;28;19949;-80
2022/03/19 09:07:54;;;;;;;;;;;;;;;11.90;100.00;101519.22;5071244;28;19932;-79
2022/03/19 09:10:21;;;;;;;;;;;;;;;11.81;100.00;101515.06;5037987;28;19956;-79
2022/03/19 09:12:48;;;;;;;;;;;;;;;12.28;100.00;101505.03;5066261;28;19925;-79
2022/03/19 09:15:15;;;;;;;;;;;;;;;11.60;100.00;101511.84;5058267;28;19931;-78
2022/03/19 09:17:43;;;;;;;;;;;;;;;11.68;100.00;101497.63;5058395;28;19924;-79
2022/03/19 09:20:10;;;;;;;;;;;;;;;11.57;100.00;101507.78;5075332;28;20425;-79
2022/03/19 09:22:38;;;;;;;;;;;;;;;11.64;100.00;101496.75;5074386;28;19977;-79
2022/03/19 09:25:06;;;;;;;;;;;;;;;11.69;100.00;101493.63;5075443;28;19928;-79
2022/03/19 09:27:34;;;;;;;;;;;;;;;11.73;100.00;101486.09;5073862;28;19934;-79
2022/03/19 09:30:01;;;;;;;;;;;;;;;11.50;100.00;101488.06;5091306;28;20010;-79
2022/03/19 09:32:28;;;;;;;;;;;;;;;11.25;100.00;101489.59;5074328;28;19928;-79
2022/03/19 09:34:56;;;;;;;;;;;;;;;11.20;100.00;101492.66;5075591;28;20017;-79
2022/03/19 09:37:26;;;;;;;;;;;;;;;11.51;100.00;101503.66;5083805;28;19931;-79
2022/03/19 09:39:53;;;;;;;;;;;;;;;11.06;100.00;101491.59;5095522;28;19981;-78
2022/03/19 09:42:21;;;;;;;;;;;;;;;11.08;100.00;101473.25;5095618;28;19963;-78
2022/03/19 09:44:48;;;;;;;;;;;;;;;11.22;100.00;101476.31;5093997;28;19964;-78
2022/03/19 09:47:17;;;;;;;;;;;;;;;11.92;100.00;101462.81;5076456;28;19929;-78
2022/03/19 09:49:44;;;;;;;;;;;;;;;11.66;100.00;101457.16;5090883;28;20073;-78
2022/03/19 09:52:12;;;;;;;;;;;;;;;11.84;100.00;101450.69;5091067;28;19925;-79
2022/03/19 09:54:39;;;;;;;;;;;;;;;11.67;100.00;101453.16;5095533;28;19978;-79
2022/03/19 09:57:06;;;;;;;;;;;;;;;12.40;100.00;101457.16;5095465;28;19928;-79
2022/03/19 09:59:36;;;;;;;;;;;;;;;11.94;100.00;101443.63;5074454;28;20386;-79
2022/03/19 10:02:05;;;;;;;;;;;;;;;11.82;100.00;101452.22;5107501;28;20007;-79
2022/03/19 10:04:32;;;;;;;;;;;;;;;11.73;100.00;101444.09;5075270;28;19928;-79
2022/03/19 10:09:46;;;;;;;;;;;;;;;12.00;100.00;101445.72;5107623;28;19929;-79
2022/03/19 10:12:21;;;;;;;;;;;;;;;11.98;100.00;101431.28;5057077;28;20277;-79
2022/03/19 10:14:51;;;;;;;;;;;;;;;12.23;100.00;101424.06;5054992;28;20033;-80
2022/03/19 10:17:35;;;;;;;;;;;;;;;12.10;100.00;101419.84;5036994;28;19925;-80
2022/03/19 10:20:12;;;;;;;;;;;;;;;12.02;100.00;101406.94;5055211;28;20018;-80
2022/03/19 10:22:46;;;;;;;;;;;;;;;12.03;100.00;101408.56;5037522;28;19924;-80
2022/03/19 10:25:17;;;;;;;;;;;;;;;11.73;100.00;101407.69;5054078;28;20008;-79
2022/03/19 10:27:45;;;;;;;;;;;;;;;12.21;100.00;101408.81;5055214;28;19929;-80
2022/03/19 10:30:19;;;;;;;;;;;;;;;12.04;100.00;101404.56;5070321;28;19925;-79
2022/03/19 10:32:49;;;;;;;;;;;;;;;12.75;100.00;101398.72;5053782;28;19924;-80
2022/03/19 10:35:36;;;;;;;;;;;;;;;12.55;100.00;101390.84;5092419;27;19947;-80
2022/03/19 10:38:16;;;;;;;;;;;;;;;12.19;100.00;101389.56;5065666;28;19925;-79
2022/03/19 10:40:44;;;;;;;;;;;;;;;12.39;100.00;101393.03;5075187;28;20339;-80
2022/03/19 10:43:12;;;;;;;;;;;;;;;11.90;100.00;101381.94;5066368;28;20273;-81
2022/03/19 10:45:49;;;;;;;;;;;;;;;12.56;100.00;101384.88;5059568;28;20430;-80
2022/03/19 10:48:20;;;;;;;;;;;;;;;12.30;100.00;101384.09;5073323;28;19935;-82
2022/03/19 10:50:47;;;;;;;;;;;;;;;12.69;100.00;101379.81;5073872;28;20447;-79
2022/03/19 10:53:15;;;;;;;;;;;;;;;12.46;100.00;101377.09;5074828;28;19925;-79
2022/03/19 10:55:42;;;;;;;;;;;;;;;12.58;100.00;101368.47;5089955;28;19932;-81
2022/03/19 10:58:09;;;;;;;;;;;;;;;12.51;100.00;101373.97;5073159;28;19978;-81
2022/03/19 11:00:50;;;;;;;;;;;;;;;12.55;100.00;101355.22;5074699;28;20364;-81
2022/03/19 11:03:19;;;;;;;;;;;;;;;12.55;100.00;101363.63;5073424;28;20337;-81
2022/03/19 11:05:48;;;;;;;;;;;;;;;13.05;100.00;101358.59;5074595;28;20372;-80
2022/03/19 11:08:18;;;;;;;;;;;;;;;13.10;100.00;101341.41;5090709;28;19935;-82
2022/03/19 11:10:46;;;;;;;;;;;;;;;12.85;100.00;101349.53;5040382;28;20411;-80
2022/03/19 11:13:17;;;;;;;;;;;;;;;12.93;100.00;101342.00;5074413;28;20381;-80
2022/03/19 11:15:44;;;;;;;;;;;;;;;13.04;100.00;101346.56;5072631;28;19925;-81
2022/03/19 11:18:12;;;;;;;;;;;;;;;13.42;100.00;101336.91;5056501;28;20485;-79
2022/03/19 11:20:41;;;;;;;;;;;;;;;13.52;100.00;101330.56;5074509;28;19986;-79
2022/03/19 11:23:09;;;;;;;;;;;;;;;13.43;100.00;101316.03;5072643;28;20015;-79
2022/03/19 11:25:44;;;;;;;;;;;;;;;13.68;100.00;101312.22;5074324;28;19990;-81
2022/03/19 11:28:13;;;;;;;;;;;;;;;13.91;100.00;101312.78;5074454;28;19925;-80
2022/03/19 11:30:42;;;;;;;;;;;;;;;13.66;100.00;101305.38;5074459;28;20303;-81
2022/03/19 11:33:17;;;;;;;;;;;;;;;13.70;100.00;101297.78;5084569;28;19931;-81
2022/03/19 11:35:53;;;;;;;;;;;;;;;14.29;100.00;101289.72;5084730;28;19964;-80
2022/03/19 11:38:21;;;;;;;;;;;;;;;13.73;100.00;101283.75;5075442;28;20437;-80
2022/03/19 11:40:56;;;;;;;;;;;;;;;13.82;100.00;101280.59;5076292;28;20023;-79
2022/03/19 11:43:33;;;;;;;;;;;;;;;13.50;100.00;101268.34;5072802;28;19928;-79
2022/03/19 11:46:04;;;;;;;;;;;;;;;13.97;100.00;101269.03;5089574;28;20339;-79
2022/03/19 11:48:35;;;;;;;;;;;;;;;13.69;100.00;101262.47;5060100;28;19951;-78
2022/03/19 11:51:15;;;;;;;;;;;;;;;13.59;100.00;101251.94;5066414;28;21359;-76
2022/03/19 11:53:51;;;;;;;;;;;;;;;14.05;100.00;101253.00;5068187;28;20381;-75
2022/03/19 11:56:20;;;;;;;;;;;;;;;13.92;100.00;101263.78;5069364;28;19924;-76
2022/03/19 11:58:50;;;;;;;;;;;;;;;14.27;100.00;101249.09;5069212;28;19929;-75
2022/03/19 12:01:18;;;;;;;;;;;;;;;14.37;100.00;101251.16;5102516;28;19924;-75
2022/03/19 12:04:03;;;;;;;;;;;;;;;13.95;100.00;101254.56;5069522;28;20559;-75
2022/03/19 12:06:32;;;;;;;;;;;;;;;14.24;100.00;101239.47;5070264;28;19931;-74
2022/03/19 12:08:59;;;;;;;;;;;;;;;14.34;100.00;101235.88;5068149;28;19967;-75
2022/03/19 12:11:27;;;;;;;;;;;;;;;14.38;100.00;101227.44;5068632;28;19924;-75
2022/03/19 12:13:56;;;;;;;;;;;;;;;14.03;100.00;101230.09;5069727;28;19924;-74
2022/03/19 12:16:39;;;;;;;;;;;;;;;14.21;100.00;101220.53;5069379;28;19929;-74
2022/03/19 12:19:12;;;;;;;;;;;;;;;14.19;100.00;101219.34;5069418;28;20019;-75
2022/03/19 12:21:42;;;;;;;;;;;;;;;14.47;100.00;101222.25;5067009;28;19928;-75
2022/03/19 12:24:16;;;;;;;;;;;;;;;14.58;100.00;101203.38;5031938;28;19925;-75
2022/03/19 12:26:49;;;;;;;;;;;;;;;14.28;100.00;101217.78;5063946;28;20354;-76
2022/03/19 12:29:18;;;;;;;;;;;;;;;14.06;100.00;101206.81;5048820;28;20276;-76
2022/03/19 12:31:47;;;;;;;;;;;;;;;14.14;100.00;101197.22;5032411;28;19931;-75
2022/03/19 12:34:17;;;;;;;;;;;;;;;13.92;100.00;101196.31;5048066;28;20591;-76
2022/03/19 12:36:45;;;;;;;;;;;;;;;14.09;100.00;101194.78;5051045;28;20023;-76
2022/03/19 12:39:13;;;;;;;;;;;;;;;13.76;100.00;101186.63;5053878;28;20582;-76
2022/03/19 12:41:40;;;;;;;;;;;;;;;13.90;100.00;101197.94;5053006;28;19925;-76
2022/03/19 12:44:29;;;;;;;;;;;;;;;13.70;100.00;101176.97;5053493;28;19932;-76
2022/03/19 12:47:01;;;;;;;;;;;;;;;14.80;100.00;101179.69;5053099;28;20019;-75
2022/03/19 12:49:29;;;;;;;;;;;;;;;14.29;100.00;101182.03;5061717;28;19948;-76
2022/03/19 12:52:05;;;;;;;;;;;;;;;14.13;100.00;101187.97;5072937;28;20338;-76
2022/03/19 12:54:32;;;;;;;;;;;;;;;13.93;100.00;101163.41;5073100;28;19931;-76
2022/03/19 12:57:12;;;;;;;;;;;;;;;13.88;100.00;101175.03;5071469;28;19936;-76
2022/03/19 12:59:48;;;;;;;;;;;;;;;14.12;100.00;101160.25;5073402;28;20044;-76